sensor_id;sensor_type;location;lat;lon;timestamp;P1;durP1;ratioP1;P2;durP2;ratioP2
19675;SDS011;39539;52.202;9.876;2023-07-02T00:00:34;7.68;;;6.97;;
19675;SDS011;39539;52.202;9.876;2023-07-02T00:03:01;6.65;;;5.95;;
19675;SDS011;39539;52.202;9.876;2023-07-02T00:05:27;6.10;;;5.50;;
19675;SDS011;39539;52.202;9.876;2023-07-02T00:07:52;5.90;;;5.40;;
19675;SDS011;39539;52.202;9.876;2023-07-02T00:10:19;8.27;;;6.28;;
19675;SDS011;39539;52.202;9.876;2023-07-02T00:12:45;6.60;;;6.10;;
19675;SDS011;39539;52.202;9.876;2023-07-02T00:15:10;8.75;;;7.03;;
19675;SDS011;39539;52.202;9.876;2023-07-02T00:17:35;11.55;;;6.93;;
19675;SDS011;39539;52.202;9.876;2023-07-02T00:20:06;9.75;;;6.65;;
19675;SDS011;39539;52.202;9.876;2023-07-02T00:22:39;8.00;;;6.38;;
19675;SDS011;39539;52.202;9.876;2023-07-02T00:25:07;6.93;;;6.18;;
19675;SDS011;39539;52.202;9.876;2023-07-02T00:27:32;6.55;;;5.95;;
19675;SDS011;39539;52.202;9.876;2023-07-02T00:29:58;7.68;;;5.90;;
19675;SDS011;39539;52.202;9.876;2023-07-02T00:32:23;6.00;;;5.40;;
19675;SDS011;39539;52.202;9.876;2023-07-02T00:34:49;6.13;;;5.50;;
19675;SDS011;39539;52.202;9.876;2023-07-02T00:37:15;6.88;;;6.18;;
19675;SDS011;39539;52.202;9.876;2023-07-02T00:39:41;7.90;;;5.88;;
19675;SDS011;39539;52.202;9.876;2023-07-02T00:42:06;10.82;;;6.40;;
19675;SDS011;39539;52.202;9.876;2023-07-02T00:44:33;13.35;;;6.43;;
19675;SDS011;39539;52.202;9.876;2023-07-02T00:47:05;14.52;;;6.72;;
19675;SDS011;39539;52.202;9.876;2023-07-02T00:49:34;10.02;;;6.07;;
19675;SDS011;39539;52.202;9.876;2023-07-02T00:51:59;6.72;;;5.95;;
19675;SDS011;39539;52.202;9.876;2023-07-02T00:54:27;9.10;;;6.22;;
19675;SDS011;39539;52.202;9.876;2023-07-02T00:56:53;9.73;;;7.20;;
19675;SDS011;39539;52.202;9.876;2023-07-02T00:59:19;9.48;;;6.40;;
19675;SDS011;39539;52.202;9.876;2023-07-02T01:01:45;9.27;;;6.47;;
19675;SDS011;39539;52.202;9.876;2023-07-02T01:04:16;8.35;;;6.53;;
19675;SDS011;39539;52.202;9.876;2023-07-02T01:06:42;7.50;;;6.32;;
19675;SDS011;39539;52.202;9.876;2023-07-02T01:09:08;9.00;;;6.53;;
19675;SDS011;39539;52.202;9.876;2023-07-02T01:11:35;8.65;;;6.75;;
19675;SDS011;39539;52.202;9.876;2023-07-02T01:16:50;6.93;;;6.20;;
19675;SDS011;39539;52.202;9.876;2023-07-02T01:22:05;7.25;;;5.75;;
19675;SDS011;39539;52.202;9.876;2023-07-02T01:24:31;10.77;;;6.07;;
19675;SDS011;39539;52.202;9.876;2023-07-02T01:26:57;7.40;;;6.03;;
19675;SDS011;39539;52.202;9.876;2023-07-02T01:29:28;8.63;;;6.00;;
19675;SDS011;39539;52.202;9.876;2023-07-02T01:31:55;9.35;;;6.28;;
19675;SDS011;39539;52.202;9.876;2023-07-02T01:34:21;8.95;;;6.35;;
19675;SDS011;39539;52.202;9.876;2023-07-02T01:36:46;10.73;;;6.55;;
19675;SDS011;39539;52.202;9.876;2023-07-02T01:39:12;7.88;;;6.07;;
19675;SDS011;39539;52.202;9.876;2023-07-02T01:41:41;9.40;;;6.82;;
19675;SDS011;39539;52.202;9.876;2023-07-02T01:44:09;7.68;;;6.88;;
19675;SDS011;39539;52.202;9.876;2023-07-02T01:46:35;7.72;;;6.80;;
19675;SDS011;39539;52.202;9.876;2023-07-02T01:49:00;7.22;;;6.50;;
19675;SDS011;39539;52.202;9.876;2023-07-02T01:51:25;9.38;;;7.53;;
19675;SDS011;39539;52.202;9.876;2023-07-02T01:53:51;8.43;;;7.22;;
19675;SDS011;39539;52.202;9.876;2023-07-02T01:56:16;7.70;;;6.95;;
19675;SDS011;39539;52.202;9.876;2023-07-02T01:58:43;8.65;;;6.85;;
19675;SDS011;39539;52.202;9.876;2023-07-02T02:01:08;7.93;;;7.20;;
19675;SDS011;39539;52.202;9.876;2023-07-02T02:03:33;11.48;;;7.10;;
19675;SDS011;39539;52.202;9.876;2023-07-02T02:05:59;8.38;;;7.57;;
19675;SDS011;39539;52.202;9.876;2023-07-02T02:08:26;9.57;;;7.63;;
19675;SDS011;39539;52.202;9.876;2023-07-02T02:10:51;9.05;;;7.15;;
19675;SDS011;39539;52.202;9.876;2023-07-02T02:13:16;12.88;;;7.18;;
19675;SDS011;39539;52.202;9.876;2023-07-02T02:15:43;9.73;;;7.32;;
19675;SDS011;39539;52.202;9.876;2023-07-02T02:18:08;11.50;;;6.82;;
19675;SDS011;39539;52.202;9.876;2023-07-02T02:20:34;9.05;;;6.90;;
19675;SDS011;39539;52.202;9.876;2023-07-02T02:22:59;9.52;;;6.53;;
19675;SDS011;39539;52.202;9.876;2023-07-02T02:25:24;11.82;;;7.25;;
19675;SDS011;39539;52.202;9.876;2023-07-02T02:27:50;9.68;;;7.85;;
19675;SDS011;39539;52.202;9.876;2023-07-02T02:30:15;10.05;;;8.00;;
19675;SDS011;39539;52.202;9.876;2023-07-02T02:32:41;8.80;;;8.00;;
19675;SDS011;39539;52.202;9.876;2023-07-02T02:35:06;9.68;;;8.77;;
19675;SDS011;39539;52.202;9.876;2023-07-02T02:37:33;11.45;;;9.85;;
19675;SDS011;39539;52.202;9.876;2023-07-02T02:39:59;10.90;;;10.00;;
19675;SDS011;39539;52.202;9.876;2023-07-02T02:42:27;11.02;;;10.13;;
19675;SDS011;39539;52.202;9.876;2023-07-02T02:44:52;12.05;;;10.95;;
19675;SDS011;39539;52.202;9.876;2023-07-02T02:47:18;11.20;;;10.40;;
19675;SDS011;39539;52.202;9.876;2023-07-02T02:49:43;11.55;;;10.65;;
19675;SDS011;39539;52.202;9.876;2023-07-02T02:52:08;12.93;;;11.82;;
19675;SDS011;39539;52.202;9.876;2023-07-02T02:54:34;10.98;;;10.07;;
19675;SDS011;39539;52.202;9.876;2023-07-02T02:56:59;12.05;;;10.75;;
19675;SDS011;39539;52.202;9.876;2023-07-02T02:59:24;12.00;;;10.00;;
19675;SDS011;39539;52.202;9.876;2023-07-02T03:01:50;11.50;;;9.90;;
19675;SDS011;39539;52.202;9.876;2023-07-02T03:04:16;13.50;;;10.38;;
19675;SDS011;39539;52.202;9.876;2023-07-02T03:06:41;16.40;;;10.07;;
19675;SDS011;39539;52.202;9.876;2023-07-02T03:09:07;14.50;;;9.95;;
19675;SDS011;39539;52.202;9.876;2023-07-02T03:11:32;12.38;;;11.25;;
19675;SDS011;39539;52.202;9.876;2023-07-02T03:13:57;13.75;;;9.65;;
19675;SDS011;39539;52.202;9.876;2023-07-02T03:16:23;12.73;;;10.52;;
19675;SDS011;39539;52.202;9.876;2023-07-02T03:18:48;15.82;;;10.80;;
19675;SDS011;39539;52.202;9.876;2023-07-02T03:21:14;15.18;;;10.95;;
19675;SDS011;39539;52.202;9.876;2023-07-02T03:23:39;13.93;;;11.30;;
19675;SDS011;39539;52.202;9.876;2023-07-02T03:26:04;12.77;;;11.65;;
19675;SDS011;39539;52.202;9.876;2023-07-02T03:28:30;13.68;;;12.48;;
19675;SDS011;39539;52.202;9.876;2023-07-02T03:30:55;14.63;;;12.63;;
19675;SDS011;39539;52.202;9.876;2023-07-02T03:33:20;21.63;;;13.07;;
19675;SDS011;39539;52.202;9.876;2023-07-02T03:35:48;14.18;;;12.90;;
19675;SDS011;39539;52.202;9.876;2023-07-02T03:38:13;15.45;;;12.80;;
19675;SDS011;39539;52.202;9.876;2023-07-02T03:40:39;16.48;;;14.80;;
19675;SDS011;39539;52.202;9.876;2023-07-02T03:43:05;15.23;;;14.23;;
19675;SDS011;39539;52.202;9.876;2023-07-02T03:45:30;17.10;;;15.68;;
19675;SDS011;39539;52.202;9.876;2023-07-02T03:47:56;16.23;;;15.15;;
19675;SDS011;39539;52.202;9.876;2023-07-02T03:50:21;16.58;;;15.25;;
19675;SDS011;39539;52.202;9.876;2023-07-02T03:52:47;15.95;;;14.70;;
19675;SDS011;39539;52.202;9.876;2023-07-02T03:55:12;16.02;;;14.32;;
19675;SDS011;39539;52.202;9.876;2023-07-02T03:57:38;15.00;;;13.75;;
19675;SDS011;39539;52.202;9.876;2023-07-02T04:00:03;15.10;;;13.90;;
19675;SDS011;39539;52.202;9.876;2023-07-02T04:02:30;14.80;;;13.50;;
19675;SDS011;39539;52.202;9.876;2023-07-02T04:04:55;14.27;;;12.95;;
19675;SDS011;39539;52.202;9.876;2023-07-02T04:07:20;15.48;;;14.15;;
19675;SDS011;39539;52.202;9.876;2023-07-02T04:09:46;15.73;;;14.63;;
19675;SDS011;39539;52.202;9.876;2023-07-02T04:12:11;16.35;;;15.23;;
19675;SDS011;39539;52.202;9.876;2023-07-02T04:14:36;15.07;;;13.68;;
19675;SDS011;39539;52.202;9.876;2023-07-02T04:17:02;14.90;;;13.80;;
19675;SDS011;39539;52.202;9.876;2023-07-02T04:19:30;14.52;;;13.40;;
19675;SDS011;39539;52.202;9.876;2023-07-02T04:21:56;15.25;;;14.02;;
19675;SDS011;39539;52.202;9.876;2023-07-02T04:24:21;15.40;;;14.20;;
19675;SDS011;39539;52.202;9.876;2023-07-02T04:26:46;14.77;;;13.70;;
19675;SDS011;39539;52.202;9.876;2023-07-02T04:29:12;14.85;;;13.63;;
19675;SDS011;39539;52.202;9.876;2023-07-02T04:31:37;14.88;;;13.75;;
19675;SDS011;39539;52.202;9.876;2023-07-02T04:34:03;15.02;;;13.63;;
19675;SDS011;39539;52.202;9.876;2023-07-02T04:36:30;17.58;;;16.00;;
19675;SDS011;39539;52.202;9.876;2023-07-02T04:38:56;16.20;;;14.65;;
19675;SDS011;39539;52.202;9.876;2023-07-02T04:41:21;16.83;;;15.57;;
19675;SDS011;39539;52.202;9.876;2023-07-02T04:43:46;17.85;;;16.25;;
19675;SDS011;39539;52.202;9.876;2023-07-02T04:46:12;17.15;;;15.95;;
19675;SDS011;39539;52.202;9.876;2023-07-02T04:48:38;18.05;;;16.67;;
19675;SDS011;39539;52.202;9.876;2023-07-02T04:51:03;17.30;;;16.10;;
19675;SDS011;39539;52.202;9.876;2023-07-02T04:53:29;17.73;;;16.25;;
19675;SDS011;39539;52.202;9.876;2023-07-02T04:55:54;12.23;;;10.95;;
19675;SDS011;39539;52.202;9.876;2023-07-02T04:58:20;15.35;;;11.00;;
19675;SDS011;39539;52.202;9.876;2023-07-02T05:00:45;13.13;;;11.25;;
19675;SDS011;39539;52.202;9.876;2023-07-02T05:03:10;13.40;;;10.07;;
19675;SDS011;39539;52.202;9.876;2023-07-02T05:05:36;19.60;;;10.00;;
19675;SDS011;39539;52.202;9.876;2023-07-02T05:08:01;16.90;;;9.88;;
19675;SDS011;39539;52.202;9.876;2023-07-02T05:10:27;14.57;;;10.32;;
19675;SDS011;39539;52.202;9.876;2023-07-02T05:12:52;24.38;;;12.10;;
19675;SDS011;39539;52.202;9.876;2023-07-02T05:15:17;16.75;;;11.38;;
19675;SDS011;39539;52.202;9.876;2023-07-02T05:17:43;17.50;;;12.13;;
19675;SDS011;39539;52.202;9.876;2023-07-02T05:20:08;16.00;;;12.77;;
19675;SDS011;39539;52.202;9.876;2023-07-02T05:22:34;14.95;;;11.20;;
19675;SDS011;39539;52.202;9.876;2023-07-02T05:24:59;14.93;;;11.77;;
19675;SDS011;39539;52.202;9.876;2023-07-02T05:27:24;15.75;;;13.32;;
19675;SDS011;39539;52.202;9.876;2023-07-02T05:29:50;16.65;;;11.55;;
19675;SDS011;39539;52.202;9.876;2023-07-02T05:32:15;37.35;;;14.93;;
19675;SDS011;39539;52.202;9.876;2023-07-02T05:34:40;19.20;;;11.82;;
19675;SDS011;39539;52.202;9.876;2023-07-02T05:37:06;15.50;;;12.20;;
19675;SDS011;39539;52.202;9.876;2023-07-02T05:39:31;15.55;;;12.02;;
19675;SDS011;39539;52.202;9.876;2023-07-02T05:41:59;13.05;;;11.60;;
19675;SDS011;39539;52.202;9.876;2023-07-02T05:44:24;15.85;;;12.00;;
19675;SDS011;39539;52.202;9.876;2023-07-02T05:46:49;15.70;;;11.40;;
19675;SDS011;39539;52.202;9.876;2023-07-02T05:49:15;15.65;;;11.57;;
19675;SDS011;39539;52.202;9.876;2023-07-02T05:51:40;17.98;;;12.05;;
19675;SDS011;39539;52.202;9.876;2023-07-02T05:54:06;14.77;;;11.43;;
19675;SDS011;39539;52.202;9.876;2023-07-02T05:56:31;14.75;;;10.48;;
19675;SDS011;39539;52.202;9.876;2023-07-02T05:58:57;11.02;;;9.77;;
19675;SDS011;39539;52.202;9.876;2023-07-02T06:01:22;14.52;;;10.23;;
19675;SDS011;39539;52.202;9.876;2023-07-02T06:03:49;12.85;;;10.27;;
19675;SDS011;39539;52.202;9.876;2023-07-02T06:06:15;11.32;;;10.23;;
19675;SDS011;39539;52.202;9.876;2023-07-02T06:08:40;12.00;;;9.88;;
19675;SDS011;39539;52.202;9.876;2023-07-02T06:11:06;10.82;;;9.20;;
19675;SDS011;39539;52.202;9.876;2023-07-02T06:13:31;9.85;;;8.85;;
19675;SDS011;39539;52.202;9.876;2023-07-02T06:15:56;8.90;;;8.07;;
19675;SDS011;39539;52.202;9.876;2023-07-02T06:18:23;9.43;;;8.43;;
19675;SDS011;39539;52.202;9.876;2023-07-02T06:20:49;8.82;;;6.95;;
19675;SDS011;39539;52.202;9.876;2023-07-02T06:23:15;7.93;;;6.93;;
19675;SDS011;39539;52.202;9.876;2023-07-02T06:25:41;8.38;;;6.30;;
19675;SDS011;39539;52.202;9.876;2023-07-02T06:28:06;8.75;;;6.80;;
19675;SDS011;39539;52.202;9.876;2023-07-02T06:30:31;6.80;;;6.10;;
19675;SDS011;39539;52.202;9.876;2023-07-02T06:32:58;8.25;;;5.93;;
19675;SDS011;39539;52.202;9.876;2023-07-02T06:35:23;6.43;;;5.63;;
19675;SDS011;39539;52.202;9.876;2023-07-02T06:37:49;6.55;;;5.90;;
19675;SDS011;39539;52.202;9.876;2023-07-02T06:40:14;8.50;;;5.88;;
19675;SDS011;39539;52.202;9.876;2023-07-02T06:42:41;7.30;;;5.93;;
19675;SDS011;39539;52.202;9.876;2023-07-02T06:45:06;6.15;;;5.18;;
19675;SDS011;39539;52.202;9.876;2023-07-02T06:47:32;7.80;;;5.75;;
19675;SDS011;39539;52.202;9.876;2023-07-02T06:49:58;6.68;;;4.97;;
19675;SDS011;39539;52.202;9.876;2023-07-02T06:52:24;7.13;;;5.00;;
19675;SDS011;39539;52.202;9.876;2023-07-02T06:54:49;5.78;;;5.05;;
19675;SDS011;39539;52.202;9.876;2023-07-02T06:57:15;5.95;;;4.93;;
19675;SDS011;39539;52.202;9.876;2023-07-02T06:59:40;9.80;;;5.32;;
19675;SDS011;39539;52.202;9.876;2023-07-02T07:02:06;6.80;;;5.30;;
19675;SDS011;39539;52.202;9.876;2023-07-02T07:04:32;8.27;;;5.30;;
19675;SDS011;39539;52.202;9.876;2023-07-02T07:06:57;6.28;;;4.53;;
19675;SDS011;39539;52.202;9.876;2023-07-02T07:09:23;6.13;;;5.20;;
19675;SDS011;39539;52.202;9.876;2023-07-02T07:11:48;6.38;;;5.28;;
19675;SDS011;39539;52.202;9.876;2023-07-02T07:14:14;7.72;;;4.40;;
19675;SDS011;39539;52.202;9.876;2023-07-02T07:16:39;7.55;;;4.95;;
19675;SDS011;39539;52.202;9.876;2023-07-02T07:19:05;6.88;;;4.90;;
19675;SDS011;39539;52.202;9.876;2023-07-02T07:21:30;9.07;;;4.60;;
19675;SDS011;39539;52.202;9.876;2023-07-02T07:23:56;6.55;;;4.53;;
19675;SDS011;39539;52.202;9.876;2023-07-02T07:26:21;5.03;;;3.92;;
19675;SDS011;39539;52.202;9.876;2023-07-02T07:28:46;6.95;;;4.65;;
19675;SDS011;39539;52.202;9.876;2023-07-02T07:31:12;6.25;;;4.47;;
19675;SDS011;39539;52.202;9.876;2023-07-02T07:33:37;6.85;;;4.60;;
19675;SDS011;39539;52.202;9.876;2023-07-02T07:36:03;8.02;;;4.53;;
19675;SDS011;39539;52.202;9.876;2023-07-02T07:38:29;5.70;;;4.55;;
19675;SDS011;39539;52.202;9.876;2023-07-02T07:40:54;6.05;;;4.40;;
19675;SDS011;39539;52.202;9.876;2023-07-02T07:43:20;8.52;;;5.03;;
19675;SDS011;39539;52.202;9.876;2023-07-02T07:45:45;8.00;;;5.78;;
19675;SDS011;39539;52.202;9.876;2023-07-02T07:48:10;6.47;;;5.68;;
19675;SDS011;39539;52.202;9.876;2023-07-02T07:50:36;7.55;;;5.82;;
19675;SDS011;39539;52.202;9.876;2023-07-02T07:53:01;7.65;;;5.78;;
19675;SDS011;39539;52.202;9.876;2023-07-02T07:55:27;6.95;;;5.32;;
19675;SDS011;39539;52.202;9.876;2023-07-02T07:57:52;7.25;;;6.25;;
19675;SDS011;39539;52.202;9.876;2023-07-02T08:00:17;7.85;;;6.50;;
19675;SDS011;39539;52.202;9.876;2023-07-02T08:02:43;13.02;;;6.50;;
19675;SDS011;39539;52.202;9.876;2023-07-02T08:05:10;10.35;;;6.30;;
19675;SDS011;39539;52.202;9.876;2023-07-02T08:07:35;7.95;;;6.10;;
19675;SDS011;39539;52.202;9.876;2023-07-02T08:10:00;8.90;;;6.03;;
19675;SDS011;39539;52.202;9.876;2023-07-02T08:12:27;8.20;;;6.65;;
19675;SDS011;39539;52.202;9.876;2023-07-02T08:14:54;7.57;;;5.97;;
19675;SDS011;39539;52.202;9.876;2023-07-02T08:17:20;8.32;;;6.30;;
19675;SDS011;39539;52.202;9.876;2023-07-02T08:19:45;7.75;;;6.50;;
19675;SDS011;39539;52.202;9.876;2023-07-02T08:22:11;7.75;;;6.72;;
19675;SDS011;39539;52.202;9.876;2023-07-02T08:24:37;12.40;;;6.88;;
19675;SDS011;39539;52.202;9.876;2023-07-02T08:27:02;10.48;;;7.10;;
19675;SDS011;39539;52.202;9.876;2023-07-02T08:29:28;9.98;;;7.18;;
19675;SDS011;39539;52.202;9.876;2023-07-02T08:31:54;10.80;;;7.25;;
19675;SDS011;39539;52.202;9.876;2023-07-02T08:34:20;10.60;;;7.63;;
19675;SDS011;39539;52.202;9.876;2023-07-02T08:36:45;11.63;;;7.20;;
19675;SDS011;39539;52.202;9.876;2023-07-02T08:39:10;13.07;;;7.35;;
19675;SDS011;39539;52.202;9.876;2023-07-02T08:41:43;11.02;;;8.10;;
19675;SDS011;39539;52.202;9.876;2023-07-02T08:44:09;8.75;;;6.85;;
19675;SDS011;39539;52.202;9.876;2023-07-02T08:46:37;9.95;;;6.90;;
19675;SDS011;39539;52.202;9.876;2023-07-02T08:49:04;11.70;;;7.93;;
19675;SDS011;39539;52.202;9.876;2023-07-02T08:51:30;12.05;;;7.60;;
19675;SDS011;39539;52.202;9.876;2023-07-02T08:53:55;10.50;;;7.70;;
19675;SDS011;39539;52.202;9.876;2023-07-02T08:56:20;12.52;;;7.90;;
19675;SDS011;39539;52.202;9.876;2023-07-02T08:58:46;12.13;;;8.02;;
19675;SDS011;39539;52.202;9.876;2023-07-02T09:01:12;12.00;;;7.95;;
19675;SDS011;39539;52.202;9.876;2023-07-02T09:03:38;11.50;;;8.23;;
19675;SDS011;39539;52.202;9.876;2023-07-02T09:06:05;9.07;;;7.82;;
19675;SDS011;39539;52.202;9.876;2023-07-02T09:08:32;10.65;;;7.82;;
19675;SDS011;39539;52.202;9.876;2023-07-02T09:11:14;10.00;;;7.47;;
19675;SDS011;39539;52.202;9.876;2023-07-02T09:13:45;10.55;;;7.75;;
19675;SDS011;39539;52.202;9.876;2023-07-02T09:16:25;9.93;;;7.32;;
19675;SDS011;39539;52.202;9.876;2023-07-02T09:18:56;10.55;;;7.10;;
19675;SDS011;39539;52.202;9.876;2023-07-02T09:21:40;9.35;;;7.25;;
19675;SDS011;39539;52.202;9.876;2023-07-02T09:26:48;11.95;;;6.63;;
19675;SDS011;39539;52.202;9.876;2023-07-02T09:29:20;8.40;;;6.78;;
19675;SDS011;39539;52.202;9.876;2023-07-02T09:31:53;8.15;;;6.95;;
19675;SDS011;39539;52.202;9.876;2023-07-02T09:34:19;9.85;;;6.88;;
19675;SDS011;39539;52.202;9.876;2023-07-02T09:36:45;8.90;;;7.07;;
19675;SDS011;39539;52.202;9.876;2023-07-02T09:39:13;8.25;;;7.30;;
19675;SDS011;39539;52.202;9.876;2023-07-02T09:41:42;7.75;;;7.00;;
19675;SDS011;39539;52.202;9.876;2023-07-02T09:44:09;10.68;;;6.90;;
19675;SDS011;39539;52.202;9.876;2023-07-02T09:46:41;9.80;;;6.88;;
19675;SDS011;39539;52.202;9.876;2023-07-02T09:49:11;9.50;;;7.45;;
19675;SDS011;39539;52.202;9.876;2023-07-02T09:51:39;8.82;;;6.97;;
19675;SDS011;39539;52.202;9.876;2023-07-02T09:54:06;7.03;;;6.28;;
19675;SDS011;39539;52.202;9.876;2023-07-02T09:56:31;9.10;;;6.80;;
19675;SDS011;39539;52.202;9.876;2023-07-02T09:58:57;9.55;;;6.57;;
19675;SDS011;39539;52.202;9.876;2023-07-02T10:01:22;10.98;;;6.82;;
19675;SDS011;39539;52.202;9.876;2023-07-02T10:03:47;9.32;;;6.53;;
19675;SDS011;39539;52.202;9.876;2023-07-02T10:06:13;7.47;;;5.90;;
19675;SDS011;39539;52.202;9.876;2023-07-02T10:08:38;9.90;;;6.55;;
19675;SDS011;39539;52.202;9.876;2023-07-02T10:11:10;9.80;;;6.07;;
19675;SDS011;39539;52.202;9.876;2023-07-02T10:13:37;6.95;;;6.13;;
19675;SDS011;39539;52.202;9.876;2023-07-02T10:16:03;8.05;;;6.43;;
19675;SDS011;39539;52.202;9.876;2023-07-02T10:18:29;12.45;;;6.35;;
19675;SDS011;39539;52.202;9.876;2023-07-02T10:20:55;7.60;;;6.35;;
19675;SDS011;39539;52.202;9.876;2023-07-02T10:23:20;10.75;;;6.20;;
19675;SDS011;39539;52.202;9.876;2023-07-02T10:25:57;8.18;;;6.65;;
19675;SDS011;39539;52.202;9.876;2023-07-02T10:28:23;10.25;;;6.25;;
19675;SDS011;39539;52.202;9.876;2023-07-02T10:30:51;8.63;;;6.72;;
19675;SDS011;39539;52.202;9.876;2023-07-02T10:33:18;7.43;;;6.15;;
19675;SDS011;39539;52.202;9.876;2023-07-02T10:35:47;8.27;;;6.28;;
19675;SDS011;39539;52.202;9.876;2023-07-02T10:38:21;10.25;;;6.47;;
19675;SDS011;39539;52.202;9.876;2023-07-02T10:40:53;11.68;;;6.70;;
19675;SDS011;39539;52.202;9.876;2023-07-02T10:43:28;7.18;;;6.47;;
19675;SDS011;39539;52.202;9.876;2023-07-02T10:45:54;10.32;;;6.45;;
19675;SDS011;39539;52.202;9.876;2023-07-02T10:48:20;8.07;;;6.88;;
19675;SDS011;39539;52.202;9.876;2023-07-02T10:50:45;8.02;;;6.88;;
19675;SDS011;39539;52.202;9.876;2023-07-02T10:53:15;8.10;;;6.03;;
19675;SDS011;39539;52.202;9.876;2023-07-02T10:55:42;8.00;;;5.68;;
19675;SDS011;39539;52.202;9.876;2023-07-02T10:58:08;10.65;;;6.40;;
19675;SDS011;39539;52.202;9.876;2023-07-02T11:00:44;7.38;;;6.28;;
19675;SDS011;39539;52.202;9.876;2023-07-02T11:03:20;8.77;;;6.38;;
19675;SDS011;39539;52.202;9.876;2023-07-02T11:05:47;8.57;;;5.70;;
19675;SDS011;39539;52.202;9.876;2023-07-02T11:08:13;7.43;;;5.80;;
19675;SDS011;39539;52.202;9.876;2023-07-02T11:10:39;7.38;;;5.90;;
19675;SDS011;39539;52.202;9.876;2023-07-02T11:13:14;12.57;;;6.82;;
19675;SDS011;39539;52.202;9.876;2023-07-02T11:15:41;7.43;;;5.60;;
19675;SDS011;39539;52.202;9.876;2023-07-02T11:18:10;7.45;;;6.07;;
19675;SDS011;39539;52.202;9.876;2023-07-02T11:20:40;6.65;;;5.72;;
19675;SDS011;39539;52.202;9.876;2023-07-02T11:23:24;6.38;;;5.30;;
19675;SDS011;39539;52.202;9.876;2023-07-02T11:28:24;8.00;;;6.45;;
19675;SDS011;39539;52.202;9.876;2023-07-02T11:30:50;7.68;;;5.70;;
19675;SDS011;39539;52.202;9.876;2023-07-02T11:33:15;9.65;;;6.03;;
19675;SDS011;39539;52.202;9.876;2023-07-02T11:35:40;7.35;;;6.15;;
19675;SDS011;39539;52.202;9.876;2023-07-02T11:38:08;6.45;;;5.82;;
19675;SDS011;39539;52.202;9.876;2023-07-02T11:40:35;9.13;;;5.63;;
19675;SDS011;39539;52.202;9.876;2023-07-02T11:43:02;10.63;;;6.20;;
19675;SDS011;39539;52.202;9.876;2023-07-02T11:45:27;7.25;;;5.78;;
19675;SDS011;39539;52.202;9.876;2023-07-02T11:47:53;7.70;;;5.47;;
19675;SDS011;39539;52.202;9.876;2023-07-02T11:50:19;6.63;;;5.70;;
19675;SDS011;39539;52.202;9.876;2023-07-02T11:52:44;7.00;;;5.43;;
19675;SDS011;39539;52.202;9.876;2023-07-02T11:55:09;10.27;;;5.68;;
19675;SDS011;39539;52.202;9.876;2023-07-02T11:57:34;8.75;;;5.97;;
19675;SDS011;39539;52.202;9.876;2023-07-02T12:00:00;7.88;;;5.85;;
19675;SDS011;39539;52.202;9.876;2023-07-02T12:02:25;7.40;;;5.60;;
19675;SDS011;39539;52.202;9.876;2023-07-02T12:04:51;8.18;;;5.93;;
19675;SDS011;39539;52.202;9.876;2023-07-02T12:07:16;8.82;;;6.63;;
19675;SDS011;39539;52.202;9.876;2023-07-02T12:09:41;7.15;;;6.30;;
19675;SDS011;39539;52.202;9.876;2023-07-02T12:12:08;7.50;;;5.60;;
19675;SDS011;39539;52.202;9.876;2023-07-02T12:14:33;9.93;;;6.32;;
19675;SDS011;39539;52.202;9.876;2023-07-02T12:16:59;7.50;;;5.50;;
19675;SDS011;39539;52.202;9.876;2023-07-02T12:19:24;6.47;;;5.82;;
19675;SDS011;39539;52.202;9.876;2023-07-02T12:21:49;7.60;;;5.60;;
19675;SDS011;39539;52.202;9.876;2023-07-02T12:24:15;8.63;;;6.40;;
19675;SDS011;39539;52.202;9.876;2023-07-02T12:26:40;8.23;;;6.05;;
19675;SDS011;39539;52.202;9.876;2023-07-02T12:29:06;6.82;;;5.70;;
19675;SDS011;39539;52.202;9.876;2023-07-02T12:31:31;8.40;;;5.65;;
19675;SDS011;39539;52.202;9.876;2023-07-02T12:33:57;7.40;;;5.57;;
19675;SDS011;39539;52.202;9.876;2023-07-02T12:36:22;6.15;;;5.30;;
19675;SDS011;39539;52.202;9.876;2023-07-02T12:38:48;6.82;;;6.00;;
19675;SDS011;39539;52.202;9.876;2023-07-02T12:41:13;8.45;;;6.07;;
19675;SDS011;39539;52.202;9.876;2023-07-02T12:43:38;6.47;;;5.85;;
19675;SDS011;39539;52.202;9.876;2023-07-02T12:46:05;8.38;;;5.97;;
19675;SDS011;39539;52.202;9.876;2023-07-02T12:48:31;7.43;;;5.95;;
19675;SDS011;39539;52.202;9.876;2023-07-02T12:50:57;7.80;;;5.75;;
19675;SDS011;39539;52.202;9.876;2023-07-02T12:53:26;8.73;;;5.55;;
19675;SDS011;39539;52.202;9.876;2023-07-02T12:55:53;6.55;;;5.18;;
19675;SDS011;39539;52.202;9.876;2023-07-02T12:58:19;6.95;;;5.22;;
19675;SDS011;39539;52.202;9.876;2023-07-02T13:00:45;6.80;;;5.43;;
19675;SDS011;39539;52.202;9.876;2023-07-02T13:03:12;9.13;;;5.55;;
19675;SDS011;39539;52.202;9.876;2023-07-02T13:05:38;8.52;;;5.35;;
19675;SDS011;39539;52.202;9.876;2023-07-02T13:08:04;7.20;;;5.55;;
19675;SDS011;39539;52.202;9.876;2023-07-02T13:10:29;10.02;;;6.22;;
19675;SDS011;39539;52.202;9.876;2023-07-02T13:12:56;6.47;;;5.35;;
19675;SDS011;39539;52.202;9.876;2023-07-02T13:15:22;6.30;;;5.45;;
19675;SDS011;39539;52.202;9.876;2023-07-02T13:17:47;6.80;;;5.40;;
19675;SDS011;39539;52.202;9.876;2023-07-02T13:20:13;9.00;;;5.75;;
19675;SDS011;39539;52.202;9.876;2023-07-02T13:22:38;6.75;;;5.65;;
19675;SDS011;39539;52.202;9.876;2023-07-02T13:25:04;6.70;;;5.07;;
19675;SDS011;39539;52.202;9.876;2023-07-02T13:27:30;9.43;;;5.72;;
19675;SDS011;39539;52.202;9.876;2023-07-02T13:29:56;8.82;;;5.93;;
19675;SDS011;39539;52.202;9.876;2023-07-02T13:32:21;7.50;;;5.78;;
19675;SDS011;39539;52.202;9.876;2023-07-02T13:34:46;6.60;;;5.53;;
19675;SDS011;39539;52.202;9.876;2023-07-02T13:37:12;8.88;;;5.95;;
19675;SDS011;39539;52.202;9.876;2023-07-02T13:39:39;7.97;;;5.80;;
19675;SDS011;39539;52.202;9.876;2023-07-02T13:42:04;8.60;;;5.88;;
19675;SDS011;39539;52.202;9.876;2023-07-02T13:44:30;5.55;;;5.05;;
19675;SDS011;39539;52.202;9.876;2023-07-02T13:46:55;7.38;;;5.53;;
19675;SDS011;39539;52.202;9.876;2023-07-02T13:49:21;7.45;;;5.80;;
19675;SDS011;39539;52.202;9.876;2023-07-02T13:51:46;7.53;;;5.00;;
19675;SDS011;39539;52.202;9.876;2023-07-02T13:54:11;7.18;;;5.47;;
19675;SDS011;39539;52.202;9.876;2023-07-02T13:56:37;8.23;;;5.68;;
19675;SDS011;39539;52.202;9.876;2023-07-02T13:59:02;8.55;;;5.57;;
19675;SDS011;39539;52.202;9.876;2023-07-02T14:01:29;6.82;;;5.65;;
19675;SDS011;39539;52.202;9.876;2023-07-02T14:03:55;5.88;;;5.15;;
19675;SDS011;39539;52.202;9.876;2023-07-02T14:06:20;9.77;;;6.07;;
19675;SDS011;39539;52.202;9.876;2023-07-02T14:08:46;7.28;;;5.07;;
19675;SDS011;39539;52.202;9.876;2023-07-02T14:11:11;10.13;;;6.00;;
19675;SDS011;39539;52.202;9.876;2023-07-02T14:13:37;7.68;;;6.18;;
19675;SDS011;39539;52.202;9.876;2023-07-02T14:16:02;7.70;;;5.43;;
19675;SDS011;39539;52.202;9.876;2023-07-02T14:18:27;6.70;;;4.88;;
19675;SDS011;39539;52.202;9.876;2023-07-02T14:20:53;6.38;;;5.30;;
19675;SDS011;39539;52.202;9.876;2023-07-02T14:23:18;6.28;;;5.60;;
19675;SDS011;39539;52.202;9.876;2023-07-02T14:25:43;8.35;;;5.53;;
19675;SDS011;39539;52.202;9.876;2023-07-02T14:28:09;7.68;;;5.30;;
19675;SDS011;39539;52.202;9.876;2023-07-02T14:30:34;5.97;;;5.20;;
19675;SDS011;39539;52.202;9.876;2023-07-02T14:33:00;8.00;;;5.30;;
19675;SDS011;39539;52.202;9.876;2023-07-02T14:35:26;6.57;;;4.78;;
19675;SDS011;39539;52.202;9.876;2023-07-02T14:37:53;5.95;;;5.35;;
19675;SDS011;39539;52.202;9.876;2023-07-02T14:40:18;5.95;;;5.15;;
19675;SDS011;39539;52.202;9.876;2023-07-02T14:42:44;5.60;;;4.82;;
19675;SDS011;39539;52.202;9.876;2023-07-02T14:45:10;11.75;;;5.30;;